Time;durP1;ratioP1;P1;durP2;ratioP2;P2;SDS_P1;SDS_P2;PMS_P1;PMS_P2;Temp;Humidity;BMP_temperature;BMP_pressure;BME280_temperature;BME280_humidity;BME280_pressure;Samples;Min_cycle;Max_cycle;Signal;HPM_P1;HPM_P2
2024/02/07 00:00:37;;;;;;;7.25;2.20;;;;;;;9.46;63.17;99595.59;4150278;28;20045;-66
2024/02/07 00:02:38;;;;;;;7.13;2.25;;;;;;;9.40;63.32;99579.34;4150608;28;20184;-67
2024/02/07 00:04:38;;;;;;;5.65;1.92;;;;;;;9.48;63.26;99590.13;4150714;28;20034;-67
2024/02/07 00:06:38;;;;;;;5.50;1.75;;;;;;;9.47;63.42;99586.59;4155636;28;20025;-67
2024/02/07 00:08:39;;;;;;;8.85;2.10;;;;;;;9.43;63.51;99587.91;4153530;28;20084;-67
2024/02/07 00:10:39;;;;;;;5.07;2.28;;;;;;;9.47;63.66;99589.25;4153737;28;20033;-67
2024/02/07 00:12:40;;;;;;;6.13;2.30;;;;;;;9.48;63.61;99574.13;4152471;28;20084;-66
2024/02/07 00:14:40;;;;;;;4.55;2.10;;;;;;;9.47;63.75;99581.25;4151814;28;20029;-67
2024/02/07 00:16:41;;;;;;;8.43;2.15;;;;;;;9.44;63.95;99586.91;4151554;28;20033;-67
2024/02/07 00:18:41;;;;;;;6.00;2.28;;;;;;;9.43;64.08;99582.56;4149719;28;20037;-67
2024/02/07 00:20:41;;;;;;;6.05;2.00;;;;;;;9.43;64.12;99585.22;4151145;28;20429;-66
2024/02/07 00:22:42;;;;;;;7.00;2.20;;;;;;;9.55;63.82;99590.34;4152260;28;20025;-67
2024/02/07 00:24:42;;;;;;;6.20;2.13;;;;;;;9.48;63.94;99579.44;4156861;28;20109;-66
2024/02/07 00:26:43;;;;;;;6.60;2.45;;;;;;;9.40;64.18;99566.03;4162240;28;20041;-66
2024/02/07 00:28:43;;;;;;;4.68;2.00;;;;;;;9.37;64.31;99569.81;4165078;28;20030;-67
2024/02/07 00:30:45;;;;;;;5.22;2.03;;;;;;;9.44;64.02;99572.72;4164733;28;20041;-68
2024/02/07 00:32:46;;;;;;;8.48;2.50;;;;;;;9.44;64.19;99562.91;4163058;28;20030;-66
2024/02/07 00:34:46;;;;;;;7.85;2.35;;;;;;;9.35;64.26;99569.97;4164032;28;20095;-67
2024/02/07 00:36:46;;;;;;;6.60;2.58;;;;;;;9.42;64.14;99564.03;4158133;28;20363;-66
2024/02/07 00:38:47;;;;;;;5.53;1.92;;;;;;;9.44;64.09;99557.56;4163460;28;20026;-67
2024/02/07 00:40:47;;;;;;;6.75;2.35;;;;;;;9.50;64.01;99554.28;4163140;28;20030;-66
2024/02/07 00:42:49;;;;;;;8.47;2.27;;;;;;;9.43;64.01;99547.88;4155596;28;20037;-67
2024/02/07 00:44:50;;;;;;;10.13;2.60;;;;;;;9.42;63.93;99542.69;4155613;28;20839;-66
2024/02/07 00:46:50;;;;;;;8.00;2.45;;;;;;;9.45;63.94;99545.06;4148702;28;20033;-67
2024/02/07 00:48:51;;;;;;;4.43;2.13;;;;;;;9.54;63.56;99535.31;4148070;28;20029;-66
2024/02/07 00:50:51;;;;;;;7.60;2.30;;;;;;;9.41;64.03;99538.31;4150125;28;20474;-66
2024/02/07 00:52:52;;;;;;;5.23;1.90;;;;;;;9.50;63.92;99542.75;4149872;28;20037;-67
2024/02/07 00:54:52;;;;;;;7.90;2.28;;;;;;;9.46;63.95;99534.22;4162376;28;20272;-66
2024/02/07 00:56:54;;;;;;;7.45;2.50;;;;;;;9.51;63.61;99537.28;4166435;28;20053;-65
2024/02/07 00:58:55;;;;;;;5.90;2.08;;;;;;;9.54;63.76;99529.97;4165989;28;20025;-66
2024/02/07 01:00:56;;;;;;;7.78;2.33;;;;;;;9.52;63.74;99528.31;4163380;28;20038;-66
2024/02/07 01:02:56;;;;;;;7.80;2.50;;;;;;;9.51;63.75;99531.97;4166037;28;20026;-65
2024/02/07 01:04:57;;;;;;;6.93;2.05;;;;;;;9.62;63.59;99522.88;4166753;28;20122;-65
2024/02/07 01:06:57;;;;;;;5.57;2.20;;;;;;;9.54;63.63;99524.66;4165543;28;20224;-68
2024/02/07 01:08:58;;;;;;;4.60;2.22;;;;;;;9.60;63.48;99524.03;4164855;28;20017;-67
2024/02/07 01:10:58;;;;;;;4.75;2.00;;;;;;;9.63;63.35;99521.06;4166191;28;20041;-66
2024/02/07 01:12:58;;;;;;;7.50;2.47;;;;;;;9.57;63.53;99535.84;4164737;28;20009;-66
2024/02/07 01:14:59;;;;;;;9.38;2.47;;;;;;;9.64;63.39;99538.75;4152686;28;20033;-67
2024/02/07 01:16:59;;;;;;;7.88;2.00;;;;;;;9.65;63.45;99524.41;4147924;28;20036;-66
2024/02/07 01:19:00;;;;;;;5.97;2.70;;;;;;;9.65;63.52;99525.25;4149029;28;20069;-67
2024/02/07 01:21:01;;;;;;;8.43;2.45;;;;;;;9.56;63.71;99522.66;4149597;28;20112;-67
2024/02/07 01:23:01;;;;;;;5.65;2.35;;;;;;;9.65;63.60;99519.91;4148673;28;20061;-66
2024/02/07 01:25:02;;;;;;;6.93;2.25;;;;;;;9.56;63.74;99520.84;4150044;28;20026;-67
2024/02/07 01:27:04;;;;;;;6.30;2.20;;;;;;;9.52;63.82;99508.78;4149016;28;20087;-67
2024/02/07 01:29:05;;;;;;;5.38;1.90;;;;;;;9.61;63.60;99517.72;4148984;28;20101;-67
2024/02/07 01:31:07;;;;;;;5.38;1.90;;;;;;;9.67;63.49;99498.41;4148798;28;20036;-67
2024/02/07 01:33:08;;;;;;;5.82;1.98;;;;;;;9.68;63.57;99505.44;4147416;28;20068;-65
2024/02/07 01:35:13;;;;;;;4.82;1.80;;;;;;;9.70;63.35;99498.13;4148539;28;20029;-66
2024/02/07 01:37:14;;;;;;;5.15;2.40;;;;;;;9.62;63.70;99484.69;4148613;28;20025;-66
2024/02/07 01:39:18;;;;;;;3.97;2.00;;;;;;;9.67;63.73;99493.06;4148402;28;20026;-66
2024/02/07 01:41:28;;;;;;;8.63;2.15;;;;;;;9.73;63.61;99480.94;4148464;28;20425;-66
2024/02/07 01:43:33;;;;;;;6.63;2.20;;;;;;;9.68;63.69;99482.22;4148778;28;20029;-67
2024/02/07 01:45:34;;;;;;;7.80;2.45;;;;;;;9.59;64.17;99477.81;4149048;28;20085;-67
2024/02/07 01:47:35;;;;;;;6.75;2.10;;;;;;;9.65;64.08;99479.03;4148932;28;20076;-67
2024/02/07 01:49:36;;;;;;;7.63;2.10;;;;;;;9.68;63.88;99478.75;4149750;28;20038;-66
2024/02/07 01:51:36;;;;;;;5.20;2.08;;;;;;;9.65;64.10;99479.88;4149433;28;20034;-67
2024/02/07 01:53:38;;;;;;;8.05;2.40;;;;;;;9.61;64.17;99477.69;4148331;28;20025;-67
2024/02/07 01:55:41;;;;;;;5.05;1.73;;;;;;;9.65;64.14;99468.34;4147877;28;20053;-67
2024/02/07 01:57:43;;;;;;;6.07;1.80;;;;;;;9.67;64.09;99472.56;4147357;28;20057;-66
2024/02/07 01:59:43;;;;;;;6.95;1.98;;;;;;;9.54;64.70;99472.09;4149407;28;20082;-67
2024/02/07 02:01:44;;;;;;;5.03;2.20;;;;;;;9.67;64.40;99467.25;4147436;28;20038;-66
2024/02/07 02:03:44;;;;;;;4.80;1.58;;;;;;;9.60;64.43;99468.00;4147881;28;20079;-66
2024/02/07 02:05:45;;;;;;;4.68;1.67;;;;;;;9.53;64.10;99462.41;4146960;28;20033;-67
2024/02/07 02:07:49;;;;;;;6.72;2.10;;;;;;;9.60;63.86;99449.31;4147407;28;20470;-66
2024/02/07 02:09:50;;;;;;;4.65;1.85;;;;;;;9.42;64.02;99449.28;4147852;28;20097;-66
2024/02/07 02:11:51;;;;;;;5.85;2.53;;;;;;;9.44;63.83;99456.19;4148102;28;20414;-67
2024/02/07 02:13:53;;;;;;;5.05;2.03;;;;;;;9.26;64.03;99455.34;4148162;28;20026;-67
2024/02/07 02:15:54;;;;;;;4.72;2.08;;;;;;;9.37;63.69;99449.75;4147336;28;20112;-67
2024/02/07 02:17:54;;;;;;;7.75;2.38;;;;;;;9.25;63.76;99453.66;4147528;28;20093;-67
2024/02/07 02:19:55;;;;;;;4.65;1.70;;;;;;;9.22;63.89;99446.75;4147845;28;20038;-67
2024/02/07 02:22:23;;;;;;;5.65;2.20;;;;;;;9.16;63.85;99424.19;4147946;28;20026;-66
2024/02/07 02:24:45;;;;;;;8.98;1.83;;;;;;;9.00;64.15;99421.38;4147830;28;20482;-66
2024/02/07 02:27:00;;;;;;;5.57;1.88;;;;;;;9.08;64.06;99405.47;4148138;28;20034;-67
2024/02/07 02:29:36;;;;;;;5.28;2.03;;;;;;;9.09;63.75;99409.81;4147225;28;20021;-66
2024/02/07 02:31:38;;;;;;;4.25;1.63;;;;;;;9.01;64.06;99405.25;4147894;28;20029;-66
2024/02/07 02:33:39;;;;;;;6.82;2.63;;;;;;;9.15;63.93;99403.03;4147077;28;20026;-66
2024/02/07 02:35:43;;;;;;;5.18;1.90;;;;;;;9.25;63.56;99394.97;4147560;28;20084;-67
2024/02/07 02:37:45;;;;;;;5.28;2.13;;;;;;;9.16;64.02;99389.53;4146036;28;20060;-66
2024/02/07 02:39:45;;;;;;;9.63;2.63;;;;;;;9.12;64.05;99393.50;4140532;28;20077;-67
2024/02/07 02:41:46;;;;;;;7.28;2.03;;;;;;;9.09;64.05;99374.31;4145449;28;20069;-66
2024/02/07 02:43:46;;;;;;;5.47;2.17;;;;;;;9.06;64.04;99383.47;4147407;28;20493;-66
2024/02/07 02:45:47;;;;;;;4.47;1.58;;;;;;;8.99;64.05;99382.38;4136556;28;20022;-67
2024/02/07 02:47:49;;;;;;;4.65;1.80;;;;;;;9.03;64.34;99378.41;4131285;28;20026;-67
2024/02/07 02:49:49;;;;;;;5.45;1.80;;;;;;;9.05;64.30;99376.44;4137396;28;20022;-67
2024/02/07 02:51:49;;;;;;;5.03;2.00;;;;;;;9.02;64.35;99371.41;4156734;28;20043;-67
2024/02/07 02:53:51;;;;;;;6.37;1.80;;;;;;;9.03;64.39;99378.41;4155961;28;20018;-67
2024/02/07 02:55:51;;;;;;;5.90;2.13;;;;;;;8.97;64.61;99376.38;4130526;28;20274;-66
2024/02/07 02:57:55;;;;;;;5.15;2.20;;;;;;;9.05;64.57;99365.78;4130878;28;20435;-66
2024/02/07 02:59:56;;;;;;;10.52;3.30;;;;;;;9.14;64.28;99370.19;4129228;28;20037;-65
2024/02/07 03:01:56;;;;;;;6.40;2.03;;;;;;;9.07;64.49;99362.97;4131553;28;20495;-67
2024/02/07 03:03:57;;;;;;;6.32;1.95;;;;;;;9.09;64.44;99356.47;4131135;28;20030;-67
2024/02/07 03:05:58;;;;;;;6.35;2.20;;;;;;;9.06;64.73;99356.81;4130731;28;20113;-67
2024/02/07 03:08:15;;;;;;;5.78;1.80;;;;;;;9.03;64.63;99357.91;4129200;28;20030;-66
2024/02/07 03:10:16;;;;;;;5.80;2.28;;;;;;;8.94;65.07;99352.66;4130854;28;20022;-66
2024/02/07 03:12:17;;;;;;;5.13;1.75;;;;;;;8.94;65.06;99345.50;4131050;28;20475;-66
2024/02/07 03:14:17;;;;;;;7.82;1.95;;;;;;;8.95;65.09;99343.69;4130312;28;20018;-67
2024/02/07 03:16:18;;;;;;;5.35;2.17;;;;;;;9.05;64.81;99344.47;4130985;28;20034;-67
2024/02/07 03:18:20;;;;;;;4.43;2.03;;;;;;;8.97;64.89;99339.03;4129839;28;20026;-65
2024/02/07 03:20:20;;;;;;;8.07;2.10;;;;;;;8.89;64.99;99337.94;4130721;28;20439;-66
2024/02/07 03:22:21;;;;;;;4.22;1.80;;;;;;;8.94;65.08;99339.34;4130646;28;20026;-66
2024/02/07 03:24:21;;;;;;;9.27;2.83;;;;;;;8.96;64.95;99327.53;4128907;28;20034;-67
2024/02/07 03:26:22;;;;;;;5.78;2.10;;;;;;;8.85;65.22;99331.25;4130515;28;20114;-66
2024/02/07 03:28:23;;;;;;;;;;;;;;;8.82;65.28;99331.56;4129251;28;20065;-66
2024/02/07 03:30:24;;;;;;;5.90;2.03;;;;;;;8.93;65.03;99324.34;4130988;28;20378;-66
2024/02/07 03:32:24;;;;;;;4.72;1.65;;;;;;;9.08;64.63;99317.47;4130883;28;20495;-67
2024/02/07 03:34:24;;;;;;;3.83;1.50;;;;;;;9.12;64.51;99334.00;4139755;28;20161;-66
2024/02/07 03:36:26;;;;;;;6.13;1.80;;;;;;;9.06;64.69;99330.13;4129571;28;20099;-66
2024/02/07 03:38:30;;;;;;;5.93;2.15;;;;;;;9.05;64.80;99328.47;4130378;28;20346;-66
2024/02/07 03:40:30;;;;;;;5.72;2.00;;;;;;;9.01;64.76;99322.59;4130654;28;20098;-67
2024/02/07 03:42:31;;;;;;;4.75;2.10;;;;;;;9.07;64.71;99323.78;4130206;28;20553;-67
2024/02/07 03:44:32;;;;;;;5.03;1.88;;;;;;;9.01;64.82;99303.94;4130456;28;20112;-66
2024/02/07 03:46:32;;;;;;;4.80;2.10;;;;;;;9.03;64.76;99322.44;4129459;28;20684;-66
2024/02/07 03:48:33;;;;;;;6.60;2.10;;;;;;;9.11;64.51;99327.00;4130886;28;20061;-66
2024/02/07 03:50:33;;;;;;;8.20;2.33;;;;;;;9.12;64.56;99329.50;4129250;28;20313;-67
2024/02/07 03:52:34;;;;;;;5.23;1.90;;;;;;;9.03;64.83;99341.91;4130517;28;20034;-67
2024/02/07 03:54:35;;;;;;;7.13;1.83;;;;;;;9.01;65.11;99337.72;4130343;28;20268;-66
2024/02/07 03:56:36;;;;;;;5.63;1.85;;;;;;;9.12;65.21;99334.00;4130211;28;20276;-67
2024/02/07 03:58:36;;;;;;;9.07;2.50;;;;;;;9.26;65.65;99340.66;4130125;28;20456;-66
2024/02/07 04:00:37;;;;;;;7.40;2.47;;;;;;;9.43;65.54;99318.44;4130155;28;20027;-66
2024/02/07 04:02:38;;;;;;;8.75;2.35;;;;;;;9.51;65.43;99321.16;4130234;28;20038;-66
2024/02/07 04:04:38;;;;;;;7.28;2.33;;;;;;;9.59;65.51;99319.53;4129597;28;20049;-67
2024/02/07 04:06:38;;;;;;;4.93;2.17;;;;;;;9.71;65.31;99304.94;4129523;28;20038;-66
2024/02/07 04:08:39;;;;;;;8.07;2.30;;;;;;;9.70;65.43;99305.09;4129776;28;20069;-66
2024/02/07 04:10:42;;;;;;;6.68;2.75;;;;;;;9.72;65.24;99309.31;4129924;28;20057;-66
2024/02/07 05:16:49;;;;;;;8.07;2.45;;;;;;;9.87;65.45;99242.78;4134125;28;20615;-66
2024/02/07 05:18:49;;;;;;;8.20;2.55;;;;;;;9.95;65.05;99223.31;4133857;28;20022;-67
2024/02/07 05:20:50;;;;;;;5.40;2.33;;;;;;;9.92;65.39;99229.00;4133829;28;20027;-67
2024/02/07 05:22:50;;;;;;;5.50;2.65;;;;;;;9.91;65.28;99201.44;4132977;28;20029;-66
2024/02/07 05:24:52;;;;;;;8.30;2.35;;;;;;;9.90;65.25;99197.09;4132365;28;20080;-67
2024/02/07 05:26:52;;;;;;;;;;;;;;;9.84;65.35;99208.41;4133083;28;20034;-66
2024/02/07 05:28:53;;;;;;;7.37;2.37;;;;;;;9.94;65.07;99208.28;4130841;28;19967;-67
2024/02/07 05:30:53;;;;;;;13.13;3.53;;;;;;;9.93;65.18;99195.94;4132983;28;20297;-67
2024/02/07 05:32:54;;;;;;;5.40;2.47;;;;;;;9.95;65.05;99197.47;4134623;28;20475;-66
2024/02/07 05:34:54;;;;;;;5.78;2.28;;;;;;;9.91;65.38;99206.78;4137749;28;20022;-67
2024/02/07 05:36:54;;;;;;;6.90;2.28;;;;;;;9.92;65.39;99202.28;4134688;28;20030;-67
2024/02/07 05:38:56;;;;;;;5.57;3.00;;;;;;;9.99;64.89;99198.78;4134338;28;20022;-67
2024/02/07 05:40:56;;;;;;;6.85;2.42;;;;;;;9.98;65.13;99212.31;4134334;28;20073;-66
2024/02/07 05:42:59;;;;;;;5.13;2.22;;;;;;;9.90;65.44;99209.63;4141515;28;20034;-67
2024/02/07 05:45:00;;;;;;;7.93;2.50;;;;;;;9.96;65.09;99199.13;4142517;28;20042;-67
2024/02/07 05:47:01;;;;;;;9.18;3.10;;;;;;;10.03;65.03;99209.97;4143649;28;20084;-66
2024/02/07 05:49:02;;;;;;;7.15;2.60;;;;;;;10.01;65.15;99204.00;4140891;28;20037;-66
2024/02/07 05:51:03;;;;;;;;;;;;;;;9.90;65.29;99193.59;4142724;28;20541;-66
2024/02/07 05:53:03;;;;;;;6.70;2.63;;;;;;;9.99;65.14;99205.97;4142189;28;19913;-66
2024/02/07 05:55:04;;;;;;;9.15;2.88;;;;;;;9.95;65.08;99184.09;4139441;28;20556;-66
2024/02/07 05:57:05;;;;;;;6.15;2.60;;;;;;;9.97;64.89;99190.09;4133745;28;20022;-65
2024/02/07 05:59:05;;;;;;;7.50;2.85;;;;;;;10.05;64.92;99188.47;4131828;28;20109;-67
2024/02/07 06:01:08;;;;;;;7.72;2.83;;;;;;;10.04;64.91;99184.94;4130790;28;20046;-66
2024/02/07 06:03:09;;;;;;;8.07;2.88;;;;;;;10.06;64.87;99188.31;4132120;28;20037;-66
2024/02/07 06:05:10;;;;;;;5.78;2.55;;;;;;;10.12;64.70;99176.13;4131693;28;20022;-67
2024/02/07 06:07:10;;;;;;;6.20;2.10;;;;;;;10.00;65.03;99172.94;4131916;28;20492;-66
2024/02/07 06:09:15;;;;;;;6.82;2.70;;;;;;;10.01;65.04;99181.78;4130391;28;20128;-67
2024/02/07 06:11:15;;;;;;;7.90;2.50;;;;;;;10.03;64.88;99169.09;4131871;28;20743;-66
2024/02/07 06:13:16;;;;;;;6.78;2.33;;;;;;;10.05;64.68;99169.78;4131869;28;20114;-66
2024/02/07 06:15:16;;;;;;;8.13;2.58;;;;;;;10.16;64.51;99164.13;4131531;28;20113;-67
2024/02/07 06:17:17;;;;;;;7.85;2.83;;;;;;;10.11;64.68;99159.25;4131266;28;20035;-67
2024/02/07 06:19:18;;;;;;;8.60;3.05;;;;;;;10.06;64.82;99171.47;4131721;28;20034;-66
2024/02/07 06:21:19;;;;;;;5.00;2.30;;;;;;;10.11;64.74;99172.63;4131618;28;20057;-66
2024/02/07 06:23:21;;;;;;;8.73;3.30;;;;;;;10.13;64.65;99167.94;4131644;28;20426;-66
2024/02/07 06:25:21;;;;;;;7.55;2.80;;;;;;;10.13;64.72;99183.97;4131373;28;20046;-67
2024/02/07 06:27:22;;;;;;;7.10;2.45;;;;;;;10.08;64.80;99180.13;4132088;28;20042;-65
2024/02/07 06:29:24;;;;;;;7.38;2.97;;;;;;;10.13;64.62;99183.16;4145935;28;20065;-67
2024/02/07 06:31:24;;;;;;;10.38;2.60;;;;;;;10.09;64.78;99181.78;4147635;28;20027;-67
2024/02/07 06:33:24;;;;;;;8.82;2.83;;;;;;;10.16;64.66;99172.13;4148886;28;20026;-67
2024/02/07 06:35:25;;;;;;;7.90;2.77;;;;;;;10.21;64.54;99175.16;4146496;28;20053;-67
2024/02/07 06:37:25;;;;;;;8.13;2.75;;;;;;;10.21;64.57;99175.16;4132382;28;20265;-66
2024/02/07 06:39:26;;;;;;;6.07;3.15;;;;;;;10.22;64.60;99175.97;4130035;28;20400;-66
2024/02/07 06:41:27;;;;;;;8.35;3.00;;;;;;;10.20;64.78;99175.34;4130282;28;20165;-66
2024/02/07 06:43:28;;;;;;;8.15;3.05;;;;;;;10.18;64.61;99170.13;4131380;28;20660;-66
2024/02/07 06:45:28;;;;;;;6.63;2.60;;;;;;;10.21;64.67;99168.97;4130955;28;20056;-68
2024/02/07 06:47:28;;;;;;;8.25;2.55;;;;;;;10.29;64.55;99169.00;4128859;28;20166;-65
2024/02/07 06:49:34;;;;;;;7.03;2.88;;;;;;;10.21;64.58;99172.50;4131294;28;20113;-66
2024/02/07 06:51:35;;;;;;;5.40;2.72;;;;;;;10.22;64.70;99175.97;4130944;28;20475;-65
2024/02/07 06:53:35;;;;;;;8.23;2.78;;;;;;;10.24;64.68;99174.00;4130815;28;20070;-66
2024/02/07 06:55:36;;;;;;;6.68;2.40;;;;;;;10.19;64.69;99174.47;4130762;28;20041;-66
2024/02/07 06:57:36;;;;;;;8.05;3.00;;;;;;;10.19;64.68;99163.78;4130882;28;20019;-66
2024/02/07 06:59:37;;;;;;;7.20;2.50;;;;;;;10.29;64.43;99166.34;4130493;28;20069;-67
2024/02/07 07:01:39;;;;;;;7.45;3.13;;;;;;;10.27;64.35;99168.31;4130381;28;20050;-67
2024/02/07 07:03:40;;;;;;;10.30;2.88;;;;;;;10.34;64.04;99164.00;4131831;28;20037;-66
2024/02/07 07:05:40;;;;;;;6.05;2.30;;;;;;;10.37;64.01;99168.16;4129668;28;20026;-66
2024/02/07 07:07:41;;;;;;;5.63;2.35;;;;;;;10.40;63.97;99176.72;4130413;28;20038;-66
2024/02/07 07:09:42;;;;;;;8.25;3.38;;;;;;;10.32;64.04;99160.66;4130721;28;20466;-67
2024/02/07 07:11:42;;;;;;;;;;;;;;;10.25;63.89;99164.97;4132936;28;20042;-66
2024/02/07 07:13:42;;;;;;;6.57;2.57;;;;;;;10.33;63.78;99161.50;4131528;28;19920;-67
2024/02/07 07:15:43;;;;;;;8.02;3.05;;;;;;;10.38;63.63;99162.72;4134291;28;20022;-66
2024/02/07 07:17:43;;;;;;;8.10;2.30;;;;;;;10.38;63.53;99161.84;4132067;28;20042;-66
2024/02/07 07:19:44;;;;;;;6.63;2.85;;;;;;;10.34;63.60;99174.69;4130659;28;20105;-67
2024/02/07 07:21:45;;;;;;;8.55;3.35;;;;;;;10.32;63.40;99149.13;4131125;28;20073;-66
2024/02/07 07:23:45;;;;;;;5.85;2.33;;;;;;;10.37;63.10;99158.34;4131024;28;20030;-66
2024/02/07 07:25:45;;;;;;;6.57;2.42;;;;;;;10.41;63.10;99169.56;4131048;28;20026;-66
2024/02/07 07:27:46;;;;;;;6.78;2.38;;;;;;;10.40;62.88;99159.84;4131090;28;20045;-65
2024/02/07 07:29:46;;;;;;;5.47;2.45;;;;;;;10.45;62.65;99160.19;4130525;28;20042;-67
2024/02/07 07:31:47;;;;;;;5.28;2.25;;;;;;;10.35;62.53;99160.31;4130677;28;20026;-66
2024/02/07 07:33:47;;;;;;;7.60;3.03;;;;;;;10.42;62.37;99148.00;4130500;28;20042;-66
2024/02/07 07:35:48;;;;;;;12.52;4.75;;;;;;;10.42;62.47;99155.19;4130480;28;20026;-65
2024/02/07 07:37:49;;;;;;;10.18;4.00;;;;;;;10.41;62.35;99154.34;4130561;28;20109;-67
2024/02/07 07:39:49;;;;;;;8.80;3.22;;;;;;;10.45;62.12;99160.19;4131042;28;20018;-67
2024/02/07 07:41:50;;;;;;;6.43;2.33;;;;;;;10.42;62.01;99156.00;4130828;28;20050;-66
2024/02/07 07:43:51;;;;;;;9.05;2.88;;;;;;;10.41;62.04;99166.88;4130538;28;20035;-66
2024/02/07 07:45:52;;;;;;;8.82;3.03;;;;;;;10.44;61.91;99148.66;4130583;28;20506;-66
2024/02/07 07:47:53;;;;;;;8.10;2.85;;;;;;;10.49;61.73;99144.66;4130758;28;20026;-67
2024/02/07 07:49:53;;;;;;;7.18;2.70;;;;;;;10.52;61.36;99149.66;4132452;28;20030;-67
2024/02/07 07:51:57;;;;;;;7.90;3.00;;;;;;;10.40;62.01;99154.50;4147004;28;20130;-66
2024/02/07 07:53:58;;;;;;;5.40;2.22;;;;;;;10.44;62.04;99164.72;4148733;28;20272;-66
2024/02/07 07:55:58;;;;;;;6.70;1.92;;;;;;;10.40;62.23;99158.00;4148944;28;20394;-67
2024/02/07 07:57:59;;;;;;;6.82;2.90;;;;;;;10.42;62.19;99164.03;4148632;28;20114;-68
2024/02/07 07:59:59;;;;;;;8.25;2.30;;;;;;;10.34;62.33;99150.63;4147644;28;20022;-67
2024/02/07 08:02:01;;;;;;;7.32;2.17;;;;;;;10.41;62.10;99157.00;4136006;28;20771;-66
2024/02/07 08:04:02;;;;;;;8.20;2.30;;;;;;;10.47;61.85;99160.03;4130902;28;20054;-66
2024/02/07 08:06:02;;;;;;;5.88;2.15;;;;;;;10.47;61.91;99146.69;4133783;28;20028;-66
2024/02/07 08:08:03;;;;;;;7.43;3.38;;;;;;;10.53;61.83;99136.13;4133499;28;20034;-67
2024/02/07 08:10:04;;;;;;;;;;;;;;;10.39;62.06;99140.31;4136261;28;20030;-66
2024/02/07 08:12:05;;;;;;;5.87;2.47;;;;;;;10.42;62.01;99134.63;4135896;28;19991;-66
2024/02/07 08:14:05;;;;;;;8.95;3.05;;;;;;;10.50;61.83;99143.66;4134436;28;20483;-66
2024/02/07 08:16:06;;;;;;;8.02;2.60;;;;;;;10.59;61.77;99137.31;4133559;28;20057;-67
2024/02/07 08:18:07;;;;;;;6.78;2.42;;;;;;;10.56;61.78;99132.31;4133110;28;20478;-66
2024/02/07 08:20:07;;;;;;;5.43;2.63;;;;;;;10.55;61.79;99122.63;4133534;28;20089;-66
2024/02/07 08:22:08;;;;;;;5.47;2.60;;;;;;;10.61;61.69;99121.94;4133634;28;20452;-67
2024/02/07 08:24:08;;;;;;;8.15;2.70;;;;;;;10.65;61.78;99119.78;4133270;28;20418;-66
2024/02/07 08:26:10;;;;;;;7.22;2.70;;;;;;;10.70;61.81;99125.47;4134034;28;20497;-67
2024/02/07 08:28:11;;;;;;;7.97;2.90;;;;;;;10.65;61.94;99123.28;4133710;28;20208;-66
2024/02/07 08:30:12;;;;;;;8.98;3.15;;;;;;;10.66;61.99;99126.78;4133757;28;20038;-67
2024/02/07 08:32:12;;;;;;;5.95;2.58;;;;;;;10.76;62.03;99122.97;4133484;28;20117;-67
2024/02/07 08:34:13;;;;;;;7.40;3.42;;;;;;;10.69;62.61;99129.13;4133809;28;20026;-66
2024/02/07 08:36:14;;;;;;;;;;;;;;;10.58;62.71;99122.31;4135925;28;20034;-68
2024/02/07 08:38:14;;;;;;;9.50;2.70;;;;;;;10.63;62.83;99124.47;4132375;28;19910;-67
2024/02/07 08:40:15;;;;;;;9.18;3.05;;;;;;;10.62;62.69;99128.97;4133985;28;20626;-67
2024/02/07 08:42:18;;;;;;;;;;;;;;;10.58;62.97;99122.31;4134442;28;20033;-67
2024/02/07 08:44:19;;;;;;;8.07;3.13;;;;;;;10.67;62.87;99115.94;4133799;28;19917;-67
2024/02/07 08:46:19;;;;;;;5.85;2.33;;;;;;;10.71;62.69;99127.13;4134125;28;20486;-66
2024/02/07 08:48:20;;;;;;;10.38;2.80;;;;;;;10.74;62.34;99116.94;4133401;28;20510;-67
2024/02/07 08:50:20;;;;;;;8.07;2.95;;;;;;;10.75;62.46;99123.97;4133155;28;20606;-67
2024/02/07 08:52:21;;;;;;;7.88;2.63;;;;;;;10.79;62.41;99120.94;4131919;28;20474;-67
2024/02/07 08:54:21;;;;;;;8.07;2.50;;;;;;;10.79;62.48;99126.28;4133100;28;20455;-67
2024/02/07 08:56:22;;;;;;;5.38;2.30;;;;;;;10.72;62.42;99121.63;4132885;28;20026;-66
2024/02/07 08:58:24;;;;;;;7.10;2.55;;;;;;;10.82;62.29;99117.94;4132693;28;20459;-66
2024/02/07 09:00:25;;;;;;;6.38;2.63;;;;;;;10.88;62.41;99122.59;4132939;28;20521;-67
2024/02/07 09:02:25;;;;;;;9.50;2.75;;;;;;;10.81;62.17;99113.56;4132564;28;20031;-67
2024/02/07 09:04:26;;;;;;;6.80;2.90;;;;;;;10.88;62.21;99102.03;4132531;28;20054;-67
2024/02/07 09:06:26;;;;;;;8.02;2.78;;;;;;;10.84;62.14;99107.91;4133012;28;20037;-66
2024/02/07 09:08:26;;;;;;;8.48;3.08;;;;;;;10.90;62.18;99101.88;4131014;28;20034;-66
2024/02/07 09:10:28;;;;;;;10.20;3.40;;;;;;;10.91;61.83;99108.88;4132427;28;20026;-67
2024/02/07 09:12:28;;;;;;;7.25;3.42;;;;;;;10.95;61.94;99112.06;4132566;28;20034;-66
2024/02/07 09:14:29;;;;;;;7.10;3.10;;;;;;;11.03;61.93;99104.00;4132445;28;20424;-67
2024/02/07 09:16:29;;;;;;;8.23;2.60;;;;;;;10.95;62.00;99093.34;4131111;28;20113;-67
2024/02/07 09:18:30;;;;;;;7.85;3.38;;;;;;;10.99;61.78;99103.53;4131862;28;20037;-66
2024/02/07 09:20:31;;;;;;;6.43;2.60;;;;;;;11.06;61.76;99101.00;4133012;28;20034;-66
2024/02/07 09:22:32;;;;;;;11.98;4.47;;;;;;;10.99;61.89;99095.50;4133989;28;20378;-66
2024/02/07 09:24:32;;;;;;;;;;;;;;;10.90;62.21;99094.69;4131918;28;20113;-67
2024/02/07 09:26:33;;;;;;;10.23;2.83;;;;;;;10.99;62.15;99092.81;4132898;28;19917;-67
2024/02/07 09:28:33;;;;;;;8.13;2.88;;;;;;;11.02;62.15;99097.00;4132268;28;20027;-66
2024/02/07 09:30:34;;;;;;;5.95;2.33;;;;;;;10.98;62.30;99091.16;4132582;28;20034;-66
2024/02/07 09:32:34;;;;;;;;;;;;;;;10.87;62.56;99078.97;4132821;28;20030;-66
2024/02/07 09:34:35;;;;;;;7.90;3.10;;;;;;;10.98;62.24;99085.81;4132702;28;20001;-67
2024/02/07 09:36:38;;;;;;;8.38;2.58;;;;;;;11.12;61.88;99083.44;4132800;28;20033;-67
2024/02/07 09:38:39;;;;;;;6.82;2.50;;;;;;;10.98;62.16;99091.16;4132419;28;20490;-67
2024/02/07 09:40:39;;;;;;;9.10;2.88;;;;;;;11.05;62.15;99081.44;4135302;28;20112;-67
2024/02/07 09:42:44;;;;;;;5.93;3.17;;;;;;;10.96;62.35;99081.63;4137580;28;20083;-66
2024/02/07 09:44:50;;;;;;;7.13;2.67;;;;;;;11.08;62.02;99089.13;4137348;28;20117;-67
2024/02/07 09:46:53;;;;;;;7.13;2.92;;;;;;;11.11;62.06;99084.44;4137531;28;20574;-67
2024/02/07 09:48:55;;;;;;;7.88;2.72;;;;;;;11.20;61.74;99070.84;4137981;28;20022;-66
2024/02/07 09:50:58;;;;;;;7.63;3.00;;;;;;;11.13;62.20;99082.44;4132723;28;20029;-66
2024/02/07 09:53:00;;;;;;;8.35;3.00;;;;;;;11.07;62.27;99074.06;4132090;28;20030;-65
2024/02/07 09:55:04;;;;;;;6.82;2.88;;;;;;;11.04;62.13;99068.25;4131756;28;20056;-67
2024/02/07 09:57:04;;;;;;;8.15;3.00;;;;;;;11.07;62.07;99082.09;4131192;28;20026;-67
2024/02/07 09:59:09;;;;;;;6.15;2.70;;;;;;;11.10;62.13;99082.78;4145363;28;20057;-67
2024/02/07 10:01:13;;;;;;;6.85;2.50;;;;;;;11.08;62.04;99075.75;4147556;28;20403;-67
2024/02/07 10:03:14;;;;;;;6.57;2.38;;;;;;;11.08;62.07;99078.41;4145638;28;20371;-67
2024/02/07 10:05:19;;;;;;;7.72;2.60;;;;;;;11.06;61.93;99077.75;4144231;28;20026;-67
2024/02/07 10:07:19;;;;;;;9.07;2.30;;;;;;;11.10;62.09;99074.75;4145865;28;20112;-66
2024/02/07 10:09:21;;;;;;;7.18;2.40;;;;;;;11.12;61.96;99080.75;4140772;28;20406;-67
2024/02/07 10:11:23;;;;;;;7.20;2.70;;;;;;;11.18;61.73;99077.38;4155960;28;20029;-67
2024/02/07 10:13:24;;;;;;;6.68;2.30;;;;;;;11.18;61.80;99064.88;4145537;28;20043;-66
2024/02/07 10:15:25;;;;;;;4.20;1.80;;;;;;;11.17;61.88;99081.06;4138887;28;20041;-66
2024/02/07 10:17:25;;;;;;;5.47;2.45;;;;;;;11.20;61.86;99078.88;4139409;28;20042;-67
2024/02/07 10:19:25;;;;;;;6.50;1.90;;;;;;;11.21;61.97;99085.91;4139993;28;20030;-66
2024/02/07 10:21:36;;;;;;;6.47;2.25;;;;;;;11.17;61.96;99079.25;4133631;28;20172;-66
2024/02/07 10:23:36;;;;;;;6.90;2.27;;;;;;;11.20;62.24;99072.72;4136685;28;20033;-66
2024/02/07 10:25:37;;;;;;;6.70;2.20;;;;;;;11.19;62.75;99079.06;4141506;28;20054;-66
2024/02/07 10:27:38;;;;;;;6.22;1.90;;;;;;;11.16;63.27;99076.72;4144701;28;20100;-68
2024/02/07 10:29:40;;;;;;;6.85;2.13;;;;;;;11.10;64.19;99069.41;4143361;28;20040;-67
2024/02/07 10:31:40;;;;;;;5.07;1.90;;;;;;;11.05;64.67;99075.25;4148339;28;20033;-66
2024/02/07 10:33:44;;;;;;;5.65;2.10;;;;;;;10.93;65.20;99080.16;4144974;28;20120;-67
2024/02/07 10:35:44;;;;;;;5.60;2.10;;;;;;;10.95;65.19;99069.28;4149203;28;20076;-67
2024/02/07 10:37:44;;;;;;;6.35;2.00;;;;;;;11.00;65.20;99072.28;4147871;28;20433;-66
2024/02/07 10:39:46;;;;;;;4.75;2.00;;;;;;;10.90;65.19;99061.75;4147073;28;20034;-67